sensor_id;sensor_type;location;lat;lon;timestamp;P1;durP1;ratioP1;P2;durP2;ratioP2
11418;SDS011;32800;44.876;13.880;2023-12-07T00:01:13;2.30;;;2.00;;
11418;SDS011;32800;44.876;13.880;2023-12-07T00:03:39;3.43;;;2.77;;
11418;SDS011;32800;44.876;13.880;2023-12-07T00:06:04;2.97;;;2.43;;
11418;SDS011;32800;44.876;13.880;2023-12-07T00:08:30;3.47;;;2.80;;
11418;SDS011;32800;44.876;13.880;2023-12-07T00:10:55;3.13;;;2.80;;
11418;SDS011;32800;44.876;13.880;2023-12-07T00:13:21;3.00;;;2.70;;
11418;SDS011;32800;44.876;13.880;2023-12-07T00:15:46;3.90;;;3.03;;
11418;SDS011;32800;44.876;13.880;2023-12-07T00:18:12;2.97;;;2.67;;
11418;SDS011;32800;44.876;13.880;2023-12-07T00:20:38;3.20;;;2.40;;
11418;SDS011;32800;44.876;13.880;2023-12-07T00:23:03;2.60;;;2.40;;
11418;SDS011;32800;44.876;13.880;2023-12-07T00:25:29;3.43;;;2.87;;
11418;SDS011;32800;44.876;13.880;2023-12-07T00:27:54;2.87;;;2.57;;
11418;SDS011;32800;44.876;13.880;2023-12-07T00:30:20;3.03;;;2.40;;
11418;SDS011;32800;44.876;13.880;2023-12-07T00:32:46;2.43;;;2.20;;
11418;SDS011;32800;44.876;13.880;2023-12-07T00:35:11;3.00;;;2.70;;
11418;SDS011;32800;44.876;13.880;2023-12-07T00:37:37;3.80;;;3.00;;
11418;SDS011;32800;44.876;13.880;2023-12-07T00:40:03;2.67;;;2.47;;
11418;SDS011;32800;44.876;13.880;2023-12-07T00:42:29;4.17;;;2.73;;
11418;SDS011;32800;44.876;13.880;2023-12-07T00:44:55;2.93;;;2.40;;
11418;SDS011;32800;44.876;13.880;2023-12-07T00:47:20;2.57;;;2.30;;
11418;SDS011;32800;44.876;13.880;2023-12-07T00:49:46;3.03;;;2.63;;
11418;SDS011;32800;44.876;13.880;2023-12-07T00:52:12;3.33;;;2.40;;
11418;SDS011;32800;44.876;13.880;2023-12-07T00:54:38;2.70;;;2.47;;
11418;SDS011;32800;44.876;13.880;2023-12-07T00:57:04;2.73;;;2.33;;
11418;SDS011;32800;44.876;13.880;2023-12-07T00:59:30;3.33;;;2.80;;
11418;SDS011;32800;44.876;13.880;2023-12-07T01:02:07;2.50;;;2.30;;
11418;SDS011;32800;44.876;13.880;2023-12-07T01:04:33;2.27;;;2.07;;
11418;SDS011;32800;44.876;13.880;2023-12-07T01:06:59;2.50;;;2.20;;
11418;SDS011;32800;44.876;13.880;2023-12-07T01:09:24;3.03;;;2.67;;
11418;SDS011;32800;44.876;13.880;2023-12-07T01:11:50;3.17;;;2.50;;
11418;SDS011;32800;44.876;13.880;2023-12-07T01:14:16;2.50;;;2.30;;
11418;SDS011;32800;44.876;13.880;2023-12-07T01:16:42;2.67;;;2.47;;
11418;SDS011;32800;44.876;13.880;2023-12-07T01:19:08;2.40;;;2.20;;
11418;SDS011;32800;44.876;13.880;2023-12-07T01:21:34;2.53;;;2.33;;
11418;SDS011;32800;44.876;13.880;2023-12-07T01:24:00;2.87;;;2.30;;
11418;SDS011;32800;44.876;13.880;2023-12-07T01:26:25;2.90;;;2.70;;
11418;SDS011;32800;44.876;13.880;2023-12-07T01:28:51;2.47;;;2.27;;
11418;SDS011;32800;44.876;13.880;2023-12-07T01:31:16;2.57;;;2.37;;
11418;SDS011;32800;44.876;13.880;2023-12-07T01:33:42;3.10;;;2.10;;
11418;SDS011;32800;44.876;13.880;2023-12-07T01:36:08;3.07;;;2.77;;
11418;SDS011;32800;44.876;13.880;2023-12-07T01:38:34;2.40;;;2.20;;
11418;SDS011;32800;44.876;13.880;2023-12-07T01:40:59;2.40;;;2.20;;
11418;SDS011;32800;44.876;13.880;2023-12-07T01:43:25;2.90;;;2.30;;
11418;SDS011;32800;44.876;13.880;2023-12-07T01:45:50;2.70;;;2.50;;
11418;SDS011;32800;44.876;13.880;2023-12-07T01:48:19;2.60;;;2.40;;
11418;SDS011;32800;44.876;13.880;2023-12-07T01:50:46;2.23;;;2.03;;
11418;SDS011;32800;44.876;13.880;2023-12-07T01:53:12;2.33;;;1.93;;
11418;SDS011;32800;44.876;13.880;2023-12-07T01:55:37;2.67;;;2.33;;
11418;SDS011;32800;44.876;13.880;2023-12-07T01:58:03;2.70;;;2.50;;
11418;SDS011;32800;44.876;13.880;2023-12-07T02:00:29;2.27;;;1.90;;
11418;SDS011;32800;44.876;13.880;2023-12-07T02:02:55;2.60;;;2.40;;
11418;SDS011;32800;44.876;13.880;2023-12-07T02:05:21;3.50;;;2.57;;
11418;SDS011;32800;44.876;13.880;2023-12-07T02:07:47;3.27;;;2.37;;
11418;SDS011;32800;44.876;13.880;2023-12-07T02:10:13;2.80;;;2.30;;
11418;SDS011;32800;44.876;13.880;2023-12-07T02:12:38;2.20;;;1.90;;
11418;SDS011;32800;44.876;13.880;2023-12-07T02:15:04;2.40;;;2.20;;
11418;SDS011;32800;44.876;13.880;2023-12-07T02:17:35;2.57;;;2.20;;
11418;SDS011;32800;44.876;13.880;2023-12-07T02:22:49;2.50;;;2.30;;
11418;SDS011;32800;44.876;13.880;2023-12-07T02:25:18;2.43;;;2.23;;
11418;SDS011;32800;44.876;13.880;2023-12-07T02:27:45;2.50;;;2.20;;
11418;SDS011;32800;44.876;13.880;2023-12-07T02:30:14;3.10;;;2.20;;
11418;SDS011;32800;44.876;13.880;2023-12-07T02:32:40;2.70;;;2.43;;
11418;SDS011;32800;44.876;13.880;2023-12-07T02:35:10;2.43;;;2.23;;
11418;SDS011;32800;44.876;13.880;2023-12-07T02:37:46;2.10;;;1.90;;
11418;SDS011;32800;44.876;13.880;2023-12-07T02:40:15;2.17;;;1.97;;
11418;SDS011;32800;44.876;13.880;2023-12-07T02:42:42;2.63;;;2.33;;
11418;SDS011;32800;44.876;13.880;2023-12-07T02:45:09;3.13;;;2.80;;
11418;SDS011;32800;44.876;13.880;2023-12-07T02:47:37;2.40;;;2.20;;
11418;SDS011;32800;44.876;13.880;2023-12-07T02:50:04;2.30;;;2.10;;
11418;SDS011;32800;44.876;13.880;2023-12-07T02:52:31;2.40;;;2.20;;
11418;SDS011;32800;44.876;13.880;2023-12-07T02:54:56;2.60;;;2.40;;
11418;SDS011;32800;44.876;13.880;2023-12-07T02:57:22;2.60;;;2.40;;
11418;SDS011;32800;44.876;13.880;2023-12-07T02:59:47;3.60;;;2.30;;
11418;SDS011;32800;44.876;13.880;2023-12-07T03:02:13;2.37;;;2.17;;
11418;SDS011;32800;44.876;13.880;2023-12-07T03:04:38;2.67;;;2.47;;
11418;SDS011;32800;44.876;13.880;2023-12-07T03:07:04;2.30;;;2.10;;
11418;SDS011;32800;44.876;13.880;2023-12-07T03:09:29;2.33;;;2.17;;
11418;SDS011;32800;44.876;13.880;2023-12-07T03:11:55;2.03;;;1.90;;
11418;SDS011;32800;44.876;13.880;2023-12-07T03:14:20;2.13;;;1.97;;
11418;SDS011;32800;44.876;13.880;2023-12-07T03:16:46;2.30;;;2.10;;
11418;SDS011;32800;44.876;13.880;2023-12-07T03:19:11;2.10;;;1.90;;
11418;SDS011;32800;44.876;13.880;2023-12-07T03:21:40;2.53;;;2.33;;
11418;SDS011;32800;44.876;13.880;2023-12-07T03:24:06;3.10;;;2.50;;
11418;SDS011;32800;44.876;13.880;2023-12-07T03:26:33;2.43;;;2.20;;
11418;SDS011;32800;44.876;13.880;2023-12-07T03:28:59;2.43;;;2.20;;
11418;SDS011;32800;44.876;13.880;2023-12-07T03:31:24;2.30;;;2.10;;
11418;SDS011;32800;44.876;13.880;2023-12-07T03:33:50;2.20;;;2.00;;
11418;SDS011;32800;44.876;13.880;2023-12-07T03:36:15;2.27;;;2.07;;
11418;SDS011;32800;44.876;13.880;2023-12-07T03:38:42;2.73;;;2.40;;
11418;SDS011;32800;44.876;13.880;2023-12-07T03:41:07;2.27;;;2.00;;
11418;SDS011;32800;44.876;13.880;2023-12-07T03:43:33;2.53;;;2.20;;
11418;SDS011;32800;44.876;13.880;2023-12-07T03:45:58;2.20;;;2.00;;
11418;SDS011;32800;44.876;13.880;2023-12-07T03:48:24;2.30;;;2.10;;
11418;SDS011;32800;44.876;13.880;2023-12-07T03:50:50;2.33;;;2.13;;
11418;SDS011;32800;44.876;13.880;2023-12-07T03:53:15;2.20;;;2.00;;
11418;SDS011;32800;44.876;13.880;2023-12-07T03:55:41;2.50;;;2.30;;
11418;SDS011;32800;44.876;13.880;2023-12-07T03:58:06;2.20;;;2.00;;
11418;SDS011;32800;44.876;13.880;2023-12-07T04:00:32;1.80;;;1.70;;
11418;SDS011;32800;44.876;13.880;2023-12-07T04:02:58;2.40;;;2.20;;
11418;SDS011;32800;44.876;13.880;2023-12-07T04:05:23;2.13;;;2.03;;
11418;SDS011;32800;44.876;13.880;2023-12-07T04:07:49;2.70;;;2.33;;
11418;SDS011;32800;44.876;13.880;2023-12-07T04:10:15;2.77;;;2.40;;
11418;SDS011;32800;44.876;13.880;2023-12-07T04:12:41;2.40;;;2.10;;
11418;SDS011;32800;44.876;13.880;2023-12-07T04:15:07;2.10;;;2.00;;
11418;SDS011;32800;44.876;13.880;2023-12-07T04:17:33;2.10;;;1.90;;
11418;SDS011;32800;44.876;13.880;2023-12-07T04:19:58;2.20;;;1.97;;
11418;SDS011;32800;44.876;13.880;2023-12-07T04:22:24;2.40;;;2.20;;
11418;SDS011;32800;44.876;13.880;2023-12-07T04:24:49;2.20;;;2.00;;
11418;SDS011;32800;44.876;13.880;2023-12-07T04:27:15;1.90;;;1.80;;
11418;SDS011;32800;44.876;13.880;2023-12-07T04:29:40;2.13;;;1.97;;
11418;SDS011;32800;44.876;13.880;2023-12-07T04:32:06;7.63;;;2.20;;
11418;SDS011;32800;44.876;13.880;2023-12-07T04:34:32;1.77;;;1.67;;
11418;SDS011;32800;44.876;13.880;2023-12-07T04:36:58;1.77;;;1.67;;
11418;SDS011;32800;44.876;13.880;2023-12-07T04:39:23;2.40;;;2.20;;
11418;SDS011;32800;44.876;13.880;2023-12-07T04:41:49;2.30;;;2.03;;
11418;SDS011;32800;44.876;13.880;2023-12-07T04:44:15;2.23;;;2.03;;
11418;SDS011;32800;44.876;13.880;2023-12-07T04:46:40;1.80;;;1.70;;
11418;SDS011;32800;44.876;13.880;2023-12-07T04:49:07;2.10;;;1.90;;
11418;SDS011;32800;44.876;13.880;2023-12-07T04:51:32;2.63;;;2.43;;
11418;SDS011;32800;44.876;13.880;2023-12-07T04:53:58;1.70;;;1.60;;
11418;SDS011;32800;44.876;13.880;2023-12-07T04:56:23;1.83;;;1.73;;
11418;SDS011;32800;44.876;13.880;2023-12-07T04:58:49;1.80;;;1.70;;
11418;SDS011;32800;44.876;13.880;2023-12-07T05:01:14;1.90;;;1.80;;
11418;SDS011;32800;44.876;13.880;2023-12-07T05:03:40;1.80;;;1.70;;
11418;SDS011;32800;44.876;13.880;2023-12-07T05:06:05;3.53;;;1.97;;
11418;SDS011;32800;44.876;13.880;2023-12-07T05:08:32;1.73;;;1.63;;
11418;SDS011;32800;44.876;13.880;2023-12-07T05:10:58;2.10;;;1.90;;
11418;SDS011;32800;44.876;13.880;2023-12-07T05:13:24;1.87;;;1.77;;
11418;SDS011;32800;44.876;13.880;2023-12-07T05:15:49;2.67;;;1.90;;
11418;SDS011;32800;44.876;13.880;2023-12-07T05:18:15;3.60;;;1.90;;
11418;SDS011;32800;44.876;13.880;2023-12-07T05:20:40;2.40;;;1.73;;
11418;SDS011;32800;44.876;13.880;2023-12-07T05:23:06;1.80;;;1.70;;
11418;SDS011;32800;44.876;13.880;2023-12-07T05:25:31;1.50;;;1.40;;
11418;SDS011;32800;44.876;13.880;2023-12-07T05:27:57;1.53;;;1.43;;
11418;SDS011;32800;44.876;13.880;2023-12-07T05:30:23;2.00;;;1.90;;
11418;SDS011;32800;44.876;13.880;2023-12-07T05:32:48;2.10;;;1.90;;
11418;SDS011;32800;44.876;13.880;2023-12-07T05:35:15;1.53;;;1.43;;
11418;SDS011;32800;44.876;13.880;2023-12-07T05:37:41;2.07;;;1.60;;
11418;SDS011;32800;44.876;13.880;2023-12-07T05:40:07;1.63;;;1.53;;
11418;SDS011;32800;44.876;13.880;2023-12-07T05:42:33;3.03;;;1.70;;
11418;SDS011;32800;44.876;13.880;2023-12-07T05:44:58;1.90;;;1.70;;
11418;SDS011;32800;44.876;13.880;2023-12-07T05:47:25;3.47;;;1.57;;
11418;SDS011;32800;44.876;13.880;2023-12-07T05:49:51;2.27;;;1.70;;
11418;SDS011;32800;44.876;13.880;2023-12-07T05:52:17;1.63;;;1.53;;
11418;SDS011;32800;44.876;13.880;2023-12-07T05:54:42;2.97;;;1.60;;
11418;SDS011;32800;44.876;13.880;2023-12-07T05:57:08;2.57;;;1.60;;
11418;SDS011;32800;44.876;13.880;2023-12-07T05:59:37;1.90;;;1.80;;
11418;SDS011;32800;44.876;13.880;2023-12-07T06:02:07;1.63;;;1.50;;
11418;SDS011;32800;44.876;13.880;2023-12-07T06:04:32;1.70;;;1.60;;
11418;SDS011;32800;44.876;13.880;2023-12-07T06:06:58;2.60;;;1.70;;
11418;SDS011;32800;44.876;13.880;2023-12-07T06:09:23;1.50;;;1.40;;
11418;SDS011;32800;44.876;13.880;2023-12-07T06:11:49;3.73;;;1.93;;
11418;SDS011;32800;44.876;13.880;2023-12-07T06:14:14;1.57;;;1.47;;
11418;SDS011;32800;44.876;13.880;2023-12-07T06:16:40;2.40;;;1.73;;
11418;SDS011;32800;44.876;13.880;2023-12-07T06:19:05;1.80;;;1.60;;
11418;SDS011;32800;44.876;13.880;2023-12-07T06:21:31;1.83;;;1.60;;
11418;SDS011;32800;44.876;13.880;2023-12-07T06:23:58;2.03;;;1.70;;
11418;SDS011;32800;44.876;13.880;2023-12-07T06:26:26;1.93;;;1.60;;
11418;SDS011;32800;44.876;13.880;2023-12-07T06:28:52;1.67;;;1.57;;
11418;SDS011;32800;44.876;13.880;2023-12-07T06:31:17;2.70;;;1.77;;
11418;SDS011;32800;44.876;13.880;2023-12-07T06:33:47;1.90;;;1.57;;
11418;SDS011;32800;44.876;13.880;2023-12-07T06:36:22;2.07;;;1.50;;
11418;SDS011;32800;44.876;13.880;2023-12-07T06:38:49;1.30;;;1.20;;
11418;SDS011;32800;44.876;13.880;2023-12-07T06:41:15;1.83;;;1.60;;
11418;SDS011;32800;44.876;13.880;2023-12-07T06:43:43;1.87;;;1.63;;
11418;SDS011;32800;44.876;13.880;2023-12-07T06:46:12;1.57;;;1.47;;
11418;SDS011;32800;44.876;13.880;2023-12-07T06:48:39;2.00;;;1.70;;
11418;SDS011;32800;44.876;13.880;2023-12-07T06:51:06;1.60;;;1.40;;
11418;SDS011;32800;44.876;13.880;2023-12-07T06:53:32;1.77;;;1.40;;
11418;SDS011;32800;44.876;13.880;2023-12-07T06:55:58;1.90;;;1.60;;
11418;SDS011;32800;44.876;13.880;2023-12-07T06:58:24;1.30;;;1.20;;
11418;SDS011;32800;44.876;13.880;2023-12-07T07:00:49;4.57;;;1.77;;
11418;SDS011;32800;44.876;13.880;2023-12-07T07:03:15;2.03;;;1.50;;
11418;SDS011;32800;44.876;13.880;2023-12-07T07:05:41;1.90;;;1.50;;
11418;SDS011;32800;44.876;13.880;2023-12-07T07:08:07;4.93;;;1.67;;
11418;SDS011;32800;44.876;13.880;2023-12-07T07:10:34;1.50;;;1.40;;
11418;SDS011;32800;44.876;13.880;2023-12-07T07:13:00;1.70;;;1.27;;
11418;SDS011;32800;44.876;13.880;2023-12-07T07:15:28;1.63;;;1.53;;
11418;SDS011;32800;44.876;13.880;2023-12-07T07:17:53;1.70;;;1.60;;
11418;SDS011;32800;44.876;13.880;2023-12-07T07:20:19;1.60;;;1.50;;
11418;SDS011;32800;44.876;13.880;2023-12-07T07:22:45;2.43;;;1.43;;
11418;SDS011;32800;44.876;13.880;2023-12-07T07:25:11;1.30;;;1.20;;
11418;SDS011;32800;44.876;13.880;2023-12-07T07:27:36;2.13;;;1.50;;
11418;SDS011;32800;44.876;13.880;2023-12-07T07:30:03;1.73;;;1.50;;
11418;SDS011;32800;44.876;13.880;2023-12-07T07:32:33;2.07;;;1.50;;
11418;SDS011;32800;44.876;13.880;2023-12-07T07:35:03;1.43;;;1.33;;
11418;SDS011;32800;44.876;13.880;2023-12-07T07:37:29;1.30;;;1.20;;
11418;SDS011;32800;44.876;13.880;2023-12-07T07:39:54;1.70;;;1.47;;
11418;SDS011;32800;44.876;13.880;2023-12-07T07:42:20;1.50;;;1.40;;
11418;SDS011;32800;44.876;13.880;2023-12-07T07:44:45;2.50;;;1.40;;
11418;SDS011;32800;44.876;13.880;2023-12-07T07:47:11;1.67;;;1.57;;
11418;SDS011;32800;44.876;13.880;2023-12-07T07:49:36;1.87;;;1.40;;
11418;SDS011;32800;44.876;13.880;2023-12-07T07:52:02;1.50;;;1.40;;
11418;SDS011;32800;44.876;13.880;2023-12-07T07:54:30;1.50;;;1.40;;
11418;SDS011;32800;44.876;13.880;2023-12-07T07:56:55;1.97;;;1.30;;
11418;SDS011;32800;44.876;13.880;2023-12-07T07:59:21;1.40;;;1.30;;
11418;SDS011;32800;44.876;13.880;2023-12-07T08:01:46;2.07;;;1.20;;
11418;SDS011;32800;44.876;13.880;2023-12-07T08:04:12;1.53;;;1.40;;
11418;SDS011;32800;44.876;13.880;2023-12-07T08:06:38;1.57;;;1.43;;
11418;SDS011;32800;44.876;13.880;2023-12-07T08:09:03;1.60;;;1.50;;
11418;SDS011;32800;44.876;13.880;2023-12-07T08:11:29;2.30;;;1.93;;
11418;SDS011;32800;44.876;13.880;2023-12-07T08:13:57;2.00;;;1.80;;
11418;SDS011;32800;44.876;13.880;2023-12-07T08:16:23;2.03;;;1.70;;
11418;SDS011;32800;44.876;13.880;2023-12-07T08:18:49;2.40;;;1.90;;
11418;SDS011;32800;44.876;13.880;2023-12-07T08:21:21;2.33;;;1.50;;
11418;SDS011;32800;44.876;13.880;2023-12-07T08:23:50;1.53;;;1.43;;
11418;SDS011;32800;44.876;13.880;2023-12-07T08:26:16;3.73;;;1.43;;
11418;SDS011;32800;44.876;13.880;2023-12-07T08:28:42;1.60;;;1.50;;
11418;SDS011;32800;44.876;13.880;2023-12-07T08:31:08;1.77;;;1.50;;
11418;SDS011;32800;44.876;13.880;2023-12-07T08:33:34;2.20;;;1.57;;
11418;SDS011;32800;44.876;13.880;2023-12-07T08:36:01;1.80;;;1.63;;
11418;SDS011;32800;44.876;13.880;2023-12-07T08:38:29;3.87;;;1.50;;
11418;SDS011;32800;44.876;13.880;2023-12-07T08:40:55;1.53;;;1.40;;
11418;SDS011;32800;44.876;13.880;2023-12-07T08:43:21;1.63;;;1.53;;
11418;SDS011;32800;44.876;13.880;2023-12-07T08:45:48;2.27;;;1.70;;
11418;SDS011;32800;44.876;13.880;2023-12-07T08:48:15;6.53;;;5.23;;
11418;SDS011;32800;44.876;13.880;2023-12-07T08:50:41;8.27;;;5.70;;
11418;SDS011;32800;44.876;13.880;2023-12-07T08:53:07;8.83;;;4.40;;
11418;SDS011;32800;44.876;13.880;2023-12-07T08:55:32;9.40;;;2.87;;
11418;SDS011;32800;44.876;13.880;2023-12-07T08:57:58;4.30;;;3.37;;
11418;SDS011;32800;44.876;13.880;2023-12-07T09:00:28;4.93;;;3.60;;
11418;SDS011;32800;44.876;13.880;2023-12-07T09:02:55;3.93;;;3.27;;
11418;SDS011;32800;44.876;13.880;2023-12-07T09:05:21;3.50;;;3.20;;
11418;SDS011;32800;44.876;13.880;2023-12-07T09:07:47;4.17;;;3.30;;
11418;SDS011;32800;44.876;13.880;2023-12-07T09:10:13;3.60;;;3.00;;
11418;SDS011;32800;44.876;13.880;2023-12-07T09:12:39;4.77;;;3.17;;
11418;SDS011;32800;44.876;13.880;2023-12-07T09:15:05;3.03;;;2.50;;
11418;SDS011;32800;44.876;13.880;2023-12-07T09:17:32;2.70;;;2.40;;
11418;SDS011;32800;44.876;13.880;2023-12-07T09:19:58;2.90;;;2.53;;
11418;SDS011;32800;44.876;13.880;2023-12-07T09:22:25;2.97;;;2.67;;
11418;SDS011;32800;44.876;13.880;2023-12-07T09:24:50;3.03;;;2.43;;
11418;SDS011;32800;44.876;13.880;2023-12-07T09:27:16;2.80;;;2.43;;
11418;SDS011;32800;44.876;13.880;2023-12-07T09:29:42;3.47;;;2.70;;
11418;SDS011;32800;44.876;13.880;2023-12-07T09:32:07;2.97;;;2.67;;
11418;SDS011;32800;44.876;13.880;2023-12-07T09:34:33;3.30;;;2.60;;
11418;SDS011;32800;44.876;13.880;2023-12-07T09:37:08;2.60;;;2.40;;
11418;SDS011;32800;44.876;13.880;2023-12-07T09:39:34;2.30;;;2.10;;
11418;SDS011;32800;44.876;13.880;2023-12-07T09:42:00;3.03;;;2.70;;
11418;SDS011;32800;44.876;13.880;2023-12-07T09:44:26;2.90;;;2.40;;
11418;SDS011;32800;44.876;13.880;2023-12-07T09:46:52;2.10;;;1.90;;
11418;SDS011;32800;44.876;13.880;2023-12-07T09:49:18;2.60;;;2.17;;
11418;SDS011;32800;44.876;13.880;2023-12-07T09:51:44;2.37;;;1.80;;
11418;SDS011;32800;44.876;13.880;2023-12-07T09:54:09;2.50;;;2.00;;
11418;SDS011;32800;44.876;13.880;2023-12-07T09:56:35;2.30;;;2.07;;
11418;SDS011;32800;44.876;13.880;2023-12-07T09:59:01;2.90;;;2.17;;
11418;SDS011;32800;44.876;13.880;2023-12-07T10:01:30;1.70;;;1.60;;
11418;SDS011;32800;44.876;13.880;2023-12-07T10:06:49;2.13;;;1.80;;
11418;SDS011;32800;44.876;13.880;2023-12-07T10:09:15;1.90;;;1.70;;
11418;SDS011;32800;44.876;13.880;2023-12-07T10:11:41;2.57;;;1.80;;
11418;SDS011;32800;44.876;13.880;2023-12-07T10:14:07;2.20;;;2.00;;
11418;SDS011;32800;44.876;13.880;2023-12-07T10:16:33;1.97;;;1.77;;
11418;SDS011;32800;44.876;13.880;2023-12-07T10:21:50;2.50;;;2.23;;
11418;SDS011;32800;44.876;13.880;2023-12-07T10:24:17;2.77;;;2.30;;
11418;SDS011;32800;44.876;13.880;2023-12-07T10:26:45;2.37;;;2.00;;
11418;SDS011;32800;44.876;13.880;2023-12-07T10:29:11;2.93;;;2.10;;
11418;SDS011;32800;44.876;13.880;2023-12-07T10:31:37;2.57;;;2.20;;
11418;SDS011;32800;44.876;13.880;2023-12-07T10:34:03;3.57;;;2.70;;
11418;SDS011;32800;44.876;13.880;2023-12-07T10:36:29;2.63;;;2.07;;
11418;SDS011;32800;44.876;13.880;2023-12-07T10:38:55;3.23;;;2.20;;
11418;SDS011;32800;44.876;13.880;2023-12-07T10:41:21;2.60;;;2.40;;
11418;SDS011;32800;44.876;13.880;2023-12-07T10:43:57;2.10;;;2.00;;
11418;SDS011;32800;44.876;13.880;2023-12-07T10:46:26;4.63;;;2.90;;
11418;SDS011;32800;44.876;13.880;2023-12-07T10:49:00;5.77;;;3.90;;
11418;SDS011;32800;44.876;13.880;2023-12-07T10:54:26;2.53;;;1.90;;
11418;SDS011;32800;44.876;13.880;2023-12-07T10:56:57;2.00;;;1.80;;
11418;SDS011;32800;44.876;13.880;2023-12-07T10:59:27;2.30;;;1.90;;
11418;SDS011;32800;44.876;13.880;2023-12-07T11:01:54;3.43;;;1.60;;
11418;SDS011;32800;44.876;13.880;2023-12-07T11:04:19;1.47;;;1.37;;
11418;SDS011;32800;44.876;13.880;2023-12-07T11:06:46;1.10;;;1.00;;
11418;SDS011;32800;44.876;13.880;2023-12-07T11:09:15;1.60;;;1.50;;
11418;SDS011;32800;44.876;13.880;2023-12-07T11:11:50;2.60;;;1.40;;
11418;SDS011;32800;44.876;13.880;2023-12-07T11:14:19;1.30;;;1.20;;
11418;SDS011;32800;44.876;13.880;2023-12-07T11:16:47;1.20;;;1.10;;
11418;SDS011;32800;44.876;13.880;2023-12-07T11:22:01;1.10;;;0.90;;
11418;SDS011;32800;44.876;13.880;2023-12-07T11:24:27;1.43;;;1.17;;
11418;SDS011;32800;44.876;13.880;2023-12-07T11:26:53;1.00;;;0.90;;
11418;SDS011;32800;44.876;13.880;2023-12-07T11:29:27;0.70;;;0.70;;
11418;SDS011;32800;44.876;13.880;2023-12-07T11:32:06;0.93;;;0.90;;
11418;SDS011;32800;44.876;13.880;2023-12-07T11:34:38;0.90;;;0.90;;
11418;SDS011;32800;44.876;13.880;2023-12-07T11:37:04;2.67;;;1.13;;
11418;SDS011;32800;44.876;13.880;2023-12-07T11:39:35;1.77;;;1.10;;
11418;SDS011;32800;44.876;13.880;2023-12-07T11:42:12;1.10;;;1.00;;
11418;SDS011;32800;44.876;13.880;2023-12-07T11:44:41;1.40;;;1.00;;
11418;SDS011;32800;44.876;13.880;2023-12-07T11:47:09;2.27;;;1.10;;
11418;SDS011;32800;44.876;13.880;2023-12-07T11:49:38;1.37;;;1.20;;
11418;SDS011;32800;44.876;13.880;2023-12-07T11:52:24;1.33;;;1.23;;
11418;SDS011;32800;44.876;13.880;2023-12-07T11:54:49;1.00;;;0.90;;
11418;SDS011;32800;44.876;13.880;2023-12-07T11:57:15;1.40;;;1.30;;
11418;SDS011;32800;44.876;13.880;2023-12-07T11:59:42;1.70;;;1.03;;
11418;SDS011;32800;44.876;13.880;2023-12-07T12:02:10;0.93;;;0.87;;
11418;SDS011;32800;44.876;13.880;2023-12-07T12:04:36;2.10;;;1.10;;
11418;SDS011;32800;44.876;13.880;2023-12-07T12:07:03;1.20;;;1.10;;
11418;SDS011;32800;44.876;13.880;2023-12-07T12:09:29;1.40;;;1.30;;
11418;SDS011;32800;44.876;13.880;2023-12-07T12:11:54;1.37;;;1.20;;
11418;SDS011;32800;44.876;13.880;2023-12-07T12:14:25;1.70;;;1.30;;
11418;SDS011;32800;44.876;13.880;2023-12-07T12:16:51;1.40;;;1.27;;
11418;SDS011;32800;44.876;13.880;2023-12-07T12:19:16;1.10;;;1.00;;
11418;SDS011;32800;44.876;13.880;2023-12-07T12:21:42;1.23;;;1.00;;
11418;SDS011;32800;44.876;13.880;2023-12-07T12:24:08;0.80;;;0.73;;
11418;SDS011;32800;44.876;13.880;2023-12-07T12:26:35;1.60;;;1.10;;
11418;SDS011;32800;44.876;13.880;2023-12-07T12:29:02;0.80;;;0.70;;
11418;SDS011;32800;44.876;13.880;2023-12-07T12:31:28;0.67;;;0.67;;
11418;SDS011;32800;44.876;13.880;2023-12-07T12:33:54;1.20;;;1.10;;
11418;SDS011;32800;44.876;13.880;2023-12-07T12:36:20;1.10;;;1.10;;
11418;SDS011;32800;44.876;13.880;2023-12-07T12:38:51;1.00;;;1.00;;
11418;SDS011;32800;44.876;13.880;2023-12-07T12:41:21;1.10;;;1.10;;
11418;SDS011;32800;44.876;13.880;2023-12-07T12:43:47;1.40;;;1.30;;
11418;SDS011;32800;44.876;13.880;2023-12-07T12:46:13;1.30;;;1.20;;
11418;SDS011;32800;44.876;13.880;2023-12-07T12:51:25;1.10;;;1.10;;
11418;SDS011;32800;44.876;13.880;2023-12-07T12:53:52;1.23;;;1.13;;
11418;SDS011;32800;44.876;13.880;2023-12-07T12:56:19;1.20;;;1.10;;
11418;SDS011;32800;44.876;13.880;2023-12-07T12:58:46;1.20;;;1.10;;
11418;SDS011;32800;44.876;13.880;2023-12-07T13:01:15;1.73;;;1.03;;
11418;SDS011;32800;44.876;13.880;2023-12-07T13:03:43;1.57;;;1.27;;
11418;SDS011;32800;44.876;13.880;2023-12-07T13:06:12;1.20;;;1.10;;
11418;SDS011;32800;44.876;13.880;2023-12-07T13:08:39;1.50;;;1.00;;
11418;SDS011;32800;44.876;13.880;2023-12-07T13:11:08;1.13;;;1.03;;
11418;SDS011;32800;44.876;13.880;2023-12-07T13:13:34;1.27;;;1.17;;
11418;SDS011;32800;44.876;13.880;2023-12-07T13:16:00;1.20;;;1.10;;
11418;SDS011;32800;44.876;13.880;2023-12-07T13:18:25;1.10;;;1.00;;
11418;SDS011;32800;44.876;13.880;2023-12-07T13:20:51;1.00;;;0.90;;
11418;SDS011;32800;44.876;13.880;2023-12-07T13:23:16;0.80;;;0.80;;
11418;SDS011;32800;44.876;13.880;2023-12-07T13:25:46;1.43;;;1.00;;
11418;SDS011;32800;44.876;13.880;2023-12-07T13:28:12;1.77;;;1.17;;
11418;SDS011;32800;44.876;13.880;2023-12-07T13:30:37;1.37;;;1.00;;
11418;SDS011;32800;44.876;13.880;2023-12-07T13:33:04;1.10;;;1.00;;
11418;SDS011;32800;44.876;13.880;2023-12-07T13:35:30;0.80;;;0.80;;
11418;SDS011;32800;44.876;13.880;2023-12-07T13:37:56;1.17;;;1.07;;
11418;SDS011;32800;44.876;13.880;2023-12-07T13:40:23;1.00;;;1.00;;
11418;SDS011;32800;44.876;13.880;2023-12-07T13:42:48;1.10;;;1.07;;
11418;SDS011;32800;44.876;13.880;2023-12-07T13:45:13;4.33;;;1.87;;
11418;SDS011;32800;44.876;13.880;2023-12-07T13:47:41;4.63;;;1.77;;
11418;SDS011;32800;44.876;13.880;2023-12-07T13:50:06;10.40;;;3.87;;
11418;SDS011;32800;44.876;13.880;2023-12-07T13:52:32;14.17;;;6.33;;
11418;SDS011;32800;44.876;13.880;2023-12-07T13:54:58;24.53;;;8.97;;
11418;SDS011;32800;44.876;13.880;2023-12-07T13:57:24;14.77;;;7.93;;
11418;SDS011;32800;44.876;13.880;2023-12-07T13:59:51;14.30;;;7.73;;
11418;SDS011;32800;44.876;13.880;2023-12-07T14:02:18;16.70;;;8.37;;
11418;SDS011;32800;44.876;13.880;2023-12-07T14:04:44;13.70;;;7.53;;
11418;SDS011;32800;44.876;13.880;2023-12-07T14:07:14;17.10;;;8.00;;
11418;SDS011;32800;44.876;13.880;2023-12-07T14:09:45;17.40;;;7.63;;
11418;SDS011;32800;44.876;13.880;2023-12-07T14:12:15;14.93;;;7.73;;
11418;SDS011;32800;44.876;13.880;2023-12-07T14:14:41;13.10;;;7.40;;
11418;SDS011;32800;44.876;13.880;2023-12-07T14:17:12;13.50;;;7.13;;
11418;SDS011;32800;44.876;13.880;2023-12-07T14:19:37;12.13;;;6.70;;
11418;SDS011;32800;44.876;13.880;2023-12-07T14:22:03;15.87;;;8.27;;
11418;SDS011;32800;44.876;13.880;2023-12-07T14:24:29;21.00;;;10.90;;
11418;SDS011;32800;44.876;13.880;2023-12-07T14:26:56;14.53;;;9.27;;
11418;SDS011;32800;44.876;13.880;2023-12-07T14:29:21;19.50;;;9.20;;
11418;SDS011;32800;44.876;13.880;2023-12-07T14:31:49;13.23;;;7.47;;
11418;SDS011;32800;44.876;13.880;2023-12-07T14:34:15;10.03;;;6.43;;
11418;SDS011;32800;44.876;13.880;2023-12-07T14:36:41;12.10;;;6.73;;
11418;SDS011;32800;44.876;13.880;2023-12-07T14:39:09;11.03;;;6.50;;
11418;SDS011;32800;44.876;13.880;2023-12-07T14:41:42;7.60;;;5.17;;
11418;SDS011;32800;44.876;13.880;2023-12-07T14:44:09;9.97;;;5.53;;
11418;SDS011;32800;44.876;13.880;2023-12-07T14:46:35;12.37;;;5.40;;